Church Road, Virginia
Current Conditions -  °F | °C
As of 4:35 PM on Monday 24 Nov 2014 (Local Time) from KPTB Reporting Station
Clear Clear  
Wind Chill: 72°   Ceiling: Unl
Heat Index: 72°   Visibility: 10mi
Dew Point: 60°   Wind: 9mph
Humidity: 66%   Direction: 200°SSW
Pressure: 29.74"   Gusts: 16mph
Location:  37.16°N, 77.6°W
Report Text: KPTB 242135Z AUTO 20008G14KT 150V220 10SM CLR 22/15 A2974 RMK AO2 T02200153
Loading
Personal Weather Stations






























Interactive Weather Map New forecast layout! Learn more

10-Day Weather Forecast

Advertisements
Track Severe Weather on mobile